Time;durP1;ratioP1;P1;durP2;ratioP2;P2;SDS_P1;SDS_P2;PMS_P1;PMS_P2;Temp;Humidity;BMP_temperature;BMP_pressure;BME280_temperature;BME280_humidity;BME280_pressure;Samples;Min_cycle;Max_cycle;Signal;HPM_P1;HPM_P2
2021/03/07 00:00:39;;;;;;;10.72;5.12;;;;;;;1.95;72.07;100721.33;1654426;84;21492;-72
2021/03/07 00:03:05;;;;;;;13.77;5.60;;;;;;;1.94;72.17;100735.27;1659479;84;20977;-73
2021/03/07 00:05:31;;;;;;;13.20;5.40;;;;;;;1.99;72.09;100731.97;1654098;84;21062;-72
2021/03/07 00:07:57;;;;;;;13.63;5.80;;;;;;;1.98;72.10;100731.58;1657597;84;23931;-72
2021/03/07 00:10:22;;;;;;;11.97;5.40;;;;;;;1.95;72.20;100701.32;1659312;86;23325;-72
2021/03/07 00:12:51;;;;;;;13.17;5.17;;;;;;;1.97;72.22;100700.80;1655576;84;21577;-72
2021/03/07 00:15:18;;;;;;;13.28;5.25;;;;;;;1.99;72.23;100707.22;1658828;84;21205;-72
2021/03/07 00:17:45;;;;;;;9.48;4.92;;;;;;;2.01;72.08;100689.73;1657522;84;21151;-73
2021/03/07 00:20:13;;;;;;;11.57;5.30;;;;;;;2.00;71.92;100703.67;1654298;84;21662;-71
2021/03/07 00:22:39;;;;;;;15.20;5.97;;;;;;;2.07;71.79;100691.98;1660118;86;21251;-71
2021/03/07 00:25:07;;;;;;;13.73;5.53;;;;;;;2.06;71.84;100685.08;1661855;82;21236;-70
2021/03/07 00:27:33;;;;;;;14.73;5.58;;;;;;;2.06;71.81;100686.39;1692997;82;21192;-71
2021/03/07 00:30:06;;;;;;;13.43;5.83;;;;;;;2.03;71.90;100698.28;1698638;82;21530;-72
2021/03/07 00:32:32;;;;;;;12.60;5.37;;;;;;;2.03;71.85;100694.37;1692187;82;21209;-72
2021/03/07 00:34:58;;;;;;;13.33;5.23;;;;;;;2.07;71.81;100672.45;1696657;82;22795;-72
2021/03/07 00:37:24;;;;;;;14.17;5.53;;;;;;;2.05;71.84;100685.17;1694695;82;22566;-71
2021/03/07 00:39:49;;;;;;;10.87;5.50;;;;;;;2.07;71.78;100675.05;1694389;82;22595;-72
2021/03/07 00:42:15;;;;;;;11.83;5.20;;;;;;;2.08;71.85;100670.22;1694037;82;20987;-71
2021/03/07 00:44:42;;;;;;;12.27;4.87;;;;;;;2.09;71.82;100664.06;1696994;82;21984;-73
2021/03/07 00:47:08;;;;;;;11.78;5.33;;;;;;;2.04;71.96;100654.39;1695274;84;21263;-72
2021/03/07 00:49:33;;;;;;;12.43;5.62;;;;;;;2.07;72.10;100662.02;1694083;82;21356;-72
2021/03/07 00:51:59;;;;;;;10.83;5.40;;;;;;;2.07;72.19;100649.47;1690844;82;20951;-71
2021/03/07 00:54:25;;;;;;;12.90;5.60;;;;;;;1.86;72.25;100608.56;1695151;82;20958;-72
2021/03/07 00:56:54;;;;;;;10.87;5.53;;;;;;;2.00;72.42;100626.83;1690964;83;28378;-72
2021/03/07 00:59:21;;;;;;;12.25;5.28;;;;;;;2.03;72.51;100644.88;1693372;82;21206;-71
2021/03/07 01:01:47;;;;;;;14.38;6.10;;;;;;;2.07;72.53;100649.47;1696229;82;21625;-73
2021/03/07 01:04:12;;;;;;;18.77;6.73;;;;;;;1.98;72.90;100631.30;1693381;82;21705;-71
2021/03/07 01:06:38;;;;;;;13.53;5.67;;;;;;;1.94;73.33;100640.20;1693321;82;20952;-72
2021/03/07 01:09:04;;;;;;;13.57;5.80;;;;;;;1.96;73.59;100627.95;1692303;82;24893;-72
2021/03/07 01:11:30;;;;;;;13.40;6.10;;;;;;;2.02;73.65;100639.32;1695699;82;24217;-71
2021/03/07 01:13:55;;;;;;;16.90;6.80;;;;;;;1.98;73.98;100622.18;1697577;82;21425;-71
2021/03/07 01:16:22;;;;;;;16.63;6.40;;;;;;;1.93;74.54;100624.22;1696384;82;21596;-71
2021/03/07 01:18:48;;;;;;;12.47;6.17;;;;;;;1.97;74.75;100619.19;1694603;82;21756;-72
2021/03/07 01:21:13;;;;;;;13.60;6.20;;;;;;;1.95;75.04;100604.13;1692665;82;26813;-71
2021/03/07 01:23:39;;;;;;;13.60;6.03;;;;;;;1.97;75.21;100615.28;1695818;82;23234;-72
2021/03/07 01:26:05;;;;;;;14.13;6.50;;;;;;;1.98;75.41;100606.08;1686205;82;21481;-72
2021/03/07 01:28:31;;;;;;;13.80;6.27;;;;;;;1.93;76.18;100626.36;1684538;83;21008;-72
2021/03/07 01:30:56;;;;;;;16.10;6.33;;;;;;;1.96;76.36;100603.21;1684465;83;21490;-72
2021/03/07 01:33:22;;;;;;;11.67;5.60;;;;;;;1.97;76.62;100603.13;1689373;83;25938;-72
2021/03/07 01:35:48;;;;;;;13.67;6.47;;;;;;;2.04;76.57;100607.50;1682218;83;24251;-72
2021/03/07 01:38:14;;;;;;;15.03;6.40;;;;;;;2.07;76.65;100592.16;1682796;83;21130;-72
2021/03/07 01:40:44;;;;;;;13.90;6.60;;;;;;;2.00;77.16;100589.06;1685388;83;21708;-73
2021/03/07 01:43:10;;;;;;;13.83;6.17;;;;;;;2.02;77.40;100576.80;1684493;83;21228;-72
2021/03/07 01:45:35;;;;;;;11.80;6.12;;;;;;;2.07;77.41;100558.30;1683361;83;21189;-72
2021/03/07 01:48:05;;;;;;;12.80;6.07;;;;;;;1.95;77.69;100546.83;1686725;83;25309;-73
2021/03/07 01:50:32;;;;;;;13.93;6.45;;;;;;;2.06;77.73;100575.67;1687282;83;22397;-72
2021/03/07 01:52:58;;;;;;;15.95;6.37;;;;;;;2.05;78.02;100546.67;1686774;83;21185;-71
2021/03/07 01:55:28;;;;;;;15.10;6.40;;;;;;;2.09;78.04;100572.06;1684788;83;20995;-71
2021/03/07 01:58:29;;;;;;;15.35;6.65;;;;;;;2.11;78.06;100530.67;1686521;83;21190;-71
2021/03/07 02:00:57;;;;;;;15.50;6.62;;;;;;;2.10;78.25;100538.10;1683682;83;21616;-72
2021/03/07 02:03:23;;;;;;;16.60;6.90;;;;;;;2.08;78.57;100516.53;1684443;83;21335;-71
2021/03/07 02:05:48;;;;;;;15.15;6.80;;;;;;;2.14;78.61;100527.88;1685324;83;21297;-71
2021/03/07 02:08:15;;;;;;;17.30;7.27;;;;;;;2.17;78.55;100529.92;1681562;83;21562;-71
2021/03/07 02:10:51;;;;;;;15.90;7.30;;;;;;;2.15;78.78;100525.63;1682541;83;21134;-71
2021/03/07 02:13:33;;;;;;;18.45;8.00;;;;;;;2.10;79.24;100522.47;1685639;83;21210;-72
2021/03/07 02:16:18;;;;;;;14.87;7.37;;;;;;;2.09;79.41;100540.80;1680837;83;21598;-72
2021/03/07 02:18:46;;;;;;;18.00;7.92;;;;;;;2.12;79.49;100524.51;1683432;83;21171;-70
2021/03/07 02:21:34;;;;;;;;;;;;;;;2.08;80.04;100524.34;1683660;83;21137;-72
2021/03/07 02:24:14;;;;;;;17.45;8.00;;;;;;;2.10;80.05;100525.55;1683278;83;20320;-72
2021/03/07 02:26:49;;;;;;;18.02;7.80;;;;;;;2.07;80.44;100520.05;1688330;82;21646;-72
2021/03/07 02:29:16;;;;;;;16.93;8.00;;;;;;;2.11;80.40;100508.53;1686121;82;21185;-72
2021/03/07 02:32:10;;;;;;;15.88;8.25;;;;;;;2.07;80.65;100518.75;1684976;82;21633;-71
2021/03/07 02:34:42;;;;;;;15.75;7.78;;;;;;;2.10;80.74;100512.05;1686479;82;21607;-72
2021/03/07 02:37:09;;;;;;;16.37;8.35;;;;;;;2.10;80.87;100502.94;1688502;82;21234;-72
2021/03/07 02:39:37;;;;;;;18.05;8.50;;;;;;;2.11;80.84;100518.95;1691237;82;21210;-71
2021/03/07 02:42:09;;;;;;;15.65;7.95;;;;;;;2.13;80.83;100504.05;1687482;82;21720;-72
2021/03/07 02:44:35;;;;;;;20.45;8.88;;;;;;;2.18;80.71;100506.85;1683205;82;21240;-71
2021/03/07 02:47:02;;;;;;;14.13;7.37;;;;;;;2.15;80.79;100495.66;1680516;84;21232;-73
2021/03/07 02:49:28;;;;;;;19.45;9.10;;;;;;;2.14;80.58;100537.00;1688301;84;21633;-73
2021/03/07 02:51:54;;;;;;;17.20;8.20;;;;;;;2.17;80.58;100502.09;1686477;84;24285;-72
2021/03/07 02:54:20;;;;;;;17.67;8.47;;;;;;;2.17;80.37;100493.45;1683830;84;21187;-72
2021/03/07 02:56:49;;;;;;;15.27;7.47;;;;;;;2.17;80.18;100480.42;1680455;84;22951;-72
2021/03/07 02:59:14;;;;;;;14.78;7.17;;;;;;;2.19;80.07;100497.64;1678481;84;21611;-73
2021/03/07 03:01:41;;;;;;;16.97;7.60;;;;;;;2.19;79.77;100503.30;1683886;82;28114;-71
2021/03/07 03:04:08;;;;;;;19.65;7.70;;;;;;;2.23;79.66;100480.04;1681819;84;21241;-71
2021/03/07 03:06:39;;;;;;;14.98;7.17;;;;;;;2.17;79.67;100492.97;1683211;83;21623;-71
2021/03/07 03:09:06;;;;;;;17.02;7.30;;;;;;;2.18;79.38;100497.26;1687183;84;21879;-71
2021/03/07 03:11:35;;;;;;;14.78;7.20;;;;;;;2.18;78.93;100482.93;1686271;82;21253;-71
2021/03/07 03:14:01;;;;;;;16.57;6.78;;;;;;;2.23;78.80;100475.66;1682226;84;21248;-72
2021/03/07 03:16:30;;;;;;;13.38;6.67;;;;;;;2.26;78.56;100495.48;1683550;84;21170;-72
2021/03/07 03:18:56;;;;;;;15.55;6.78;;;;;;;2.25;78.34;100469.05;1686108;84;21576;-71
2021/03/07 03:21:22;;;;;;;15.83;6.42;;;;;;;2.25;78.10;100457.32;1686046;84;21590;-71
2021/03/07 03:23:49;;;;;;;14.87;6.53;;;;;;;2.29;77.65;100495.30;1684935;83;21043;-71
2021/03/07 03:26:16;;;;;;;12.88;5.85;;;;;;;2.28;77.61;100452.75;1689547;83;21206;-71
2021/03/07 03:28:42;;;;;;;14.20;5.83;;;;;;;2.31;77.23;100462.16;1674836;83;27621;-71
2021/03/07 03:31:07;;;;;;;12.43;5.73;;;;;;;2.30;77.22;100461.77;1690075;84;21580;-71
2021/03/07 03:33:33;;;;;;;12.50;6.07;;;;;;;2.32;77.02;100484.69;1692039;84;22609;-72
2021/03/07 03:35:59;;;;;;;14.63;5.77;;;;;;;2.37;76.87;100443.53;1694069;83;20975;-72
2021/03/07 03:38:40;;;;;;;12.93;5.70;;;;;;;2.32;76.87;100461.23;1692967;83;25838;-72
2021/03/07 03:41:08;;;;;;;9.58;5.10;;;;;;;2.41;76.39;100433.74;1691097;84;21627;-72
2021/03/07 03:43:34;;;;;;;9.38;5.05;;;;;;;2.39;76.18;100454.69;1691014;84;21264;-71
2021/03/07 03:46:01;;;;;;;13.53;5.73;;;;;;;2.38;76.03;100429.58;1688466;84;20915;-71
2021/03/07 03:48:31;;;;;;;9.15;4.40;;;;;;;2.38;76.03;100454.34;1691540;83;21185;-71
2021/03/07 03:50:58;;;;;;;11.75;5.50;;;;;;;2.37;75.75;100423.98;1690430;84;21228;-70
2021/03/07 03:53:24;;;;;;;13.03;5.47;;;;;;;2.36;75.78;100447.06;1688210;84;21193;-71
2021/03/07 03:55:51;;;;;;;11.47;5.27;;;;;;;2.34;76.00;100448.45;1685775;84;21451;-71
2021/03/07 03:58:22;;;;;;;11.30;5.10;;;;;;;2.36;76.15;100448.84;1696330;82;21186;-71
2021/03/07 04:00:50;;;;;;;12.23;6.12;;;;;;;2.42;76.20;100416.70;1697338;82;21609;-70
2021/03/07 04:03:17;;;;;;;11.70;5.10;;;;;;;2.39;76.41;100410.37;1689715;83;21188;-70
2021/03/07 04:05:47;;;;;;;10.63;4.90;;;;;;;2.39;76.54;100437.75;1690983;84;21535;-71
2021/03/07 04:08:13;;;;;;;10.60;5.95;;;;;;;2.39;76.60;100445.56;1691126;84;21233;-70
2021/03/07 04:10:41;;;;;;;13.32;5.40;;;;;;;2.40;76.83;100404.72;1670382;84;21653;-71
2021/03/07 04:13:07;;;;;;;13.05;5.45;;;;;;;2.36;77.03;100407.97;1689586;84;21675;-71
2021/03/07 04:15:32;;;;;;;11.43;5.60;;;;;;;2.43;76.98;100407.96;1691526;82;27853;-71
2021/03/07 04:17:58;;;;;;;10.20;5.40;;;;;;;2.40;76.97;100432.91;1693469;82;24179;-70
2021/03/07 04:20:28;;;;;;;14.40;5.43;;;;;;;2.38;76.83;100411.33;1688633;84;21839;-70
2021/03/07 04:22:54;;;;;;;14.63;6.12;;;;;;;2.35;76.63;100419.34;1688828;84;21196;-70
2021/03/07 04:25:20;;;;;;;13.93;6.10;;;;;;;2.44;76.45;100410.95;1690009;84;21145;-71
2021/03/07 04:27:46;;;;;;;12.30;5.80;;;;;;;2.45;76.31;100430.02;1695169;83;25924;-71
2021/03/07 04:30:13;;;;;;;15.37;6.13;;;;;;;2.48;76.28;100382.91;1695905;84;25235;-70
2021/03/07 04:32:38;;;;;;;12.30;6.12;;;;;;;2.46;76.23;100382.17;1690466;84;21755;-71
2021/03/07 04:35:06;;;;;;;11.93;5.47;;;;;;;2.47;76.28;100399.47;1689635;84;21612;-71
2021/03/07 04:37:32;;;;;;;10.60;5.53;;;;;;;2.48;76.34;100394.16;1691371;84;21584;-71
2021/03/07 04:39:57;;;;;;;12.90;6.07;;;;;;;2.49;76.36;100366.34;1696964;82;25855;-71
2021/03/07 04:42:23;;;;;;;13.73;5.57;;;;;;;2.46;76.36;100366.54;1692765;83;24213;-71
2021/03/07 04:44:49;;;;;;;9.37;5.63;;;;;;;2.45;76.57;100379.19;1695699;84;21197;-71
2021/03/07 04:47:14;;;;;;;10.47;5.33;;;;;;;2.43;76.68;100392.32;1696254;82;25468;-71
2021/03/07 04:49:40;;;;;;;12.00;5.60;;;;;;;2.42;76.88;100372.39;1692236;84;21339;-71
2021/03/07 04:52:06;;;;;;;12.57;6.03;;;;;;;2.45;76.94;100370.06;1684691;84;27235;-71
2021/03/07 04:54:32;;;;;;;14.70;6.27;;;;;;;2.45;76.88;100360.47;1645677;86;24290;-71
2021/03/07 04:56:58;;;;;;;9.30;5.57;;;;;;;2.40;76.95;100363.84;1649734;86;21709;-71
2021/03/07 04:59:23;;;;;;;13.17;5.83;;;;;;;2.47;76.76;100361.67;1650858;84;21037;-71
2021/03/07 05:01:49;;;;;;;11.53;5.30;;;;;;;2.37;76.81;100383.59;1645405;85;20996;-71
2021/03/07 05:04:15;;;;;;;8.93;5.33;;;;;;;2.45;76.55;100376.59;1649662;86;23970;-71
2021/03/07 05:06:41;;;;;;;11.15;5.17;;;;;;;2.43;76.63;100368.86;1641034;86;25735;-71
2021/03/07 05:09:11;;;;;;;9.18;5.15;;;;;;;2.37;76.52;100384.89;1622431;86;21234;-71
2021/03/07 05:11:37;;;;;;;10.70;5.78;;;;;;;2.37;76.66;100377.08;1647224;86;21656;-71
2021/03/07 05:14:03;;;;;;;10.17;5.40;;;;;;;2.44;76.33;100370.55;1638785;86;21635;-71
2021/03/07 05:16:29;;;;;;;12.35;5.28;;;;;;;2.43;76.31;100358.91;1639407;86;21182;-71
2021/03/07 05:18:55;;;;;;;10.60;5.60;;;;;;;2.37;75.99;100377.08;1639205;86;26649;-71
2021/03/07 05:21:22;;;;;;;11.97;5.65;;;;;;;2.35;75.87;100375.05;1648178;86;22248;-71
2021/03/07 05:23:47;;;;;;;11.03;5.42;;;;;;;2.40;75.80;100358.63;1651232;85;21201;-71
2021/03/07 05:26:13;;;;;;;9.63;5.63;;;;;;;2.47;75.72;100371.66;1644888;85;20953;-70
2021/03/07 05:28:39;;;;;;;11.73;5.63;;;;;;;2.40;75.95;100358.63;1642768;86;26800;-71
2021/03/07 05:31:05;;;;;;;10.70;5.83;;;;;;;2.42;76.17;100347.63;1634498;86;25275;-71
2021/03/07 05:33:31;;;;;;;11.63;5.53;;;;;;;2.37;76.46;100366.65;1633481;87;21377;-71
2021/03/07 05:35:57;;;;;;;10.90;5.67;;;;;;;2.32;76.51;100362.20;1641547;87;21630;-71
2021/03/07 05:38:23;;;;;;;9.73;5.23;;;;;;;2.34;76.29;100331.66;1635338;86;21481;-71
2021/03/07 05:40:49;;;;;;;11.23;5.33;;;;;;;2.32;75.77;100372.63;1640336;86;25954;-71
2021/03/07 05:43:14;;;;;;;12.28;5.00;;;;;;;2.35;75.48;100350.28;1642465;85;21213;-70
2021/03/07 05:45:40;;;;;;;11.10;5.03;;;;;;;2.34;75.23;100329.06;1641573;84;21612;-71
2021/03/07 05:48:06;;;;;;;8.63;5.00;;;;;;;2.35;75.00;100350.28;1642529;85;20959;-71
2021/03/07 05:50:32;;;;;;;8.55;4.90;;;;;;;2.37;74.81;100349.70;1643111;84;21207;-70
2021/03/07 05:52:58;;;;;;;11.63;5.10;;;;;;;2.33;74.69;100366.47;1643792;84;27811;-71
2021/03/07 05:55:25;;;;;;;9.87;4.67;;;;;;;2.33;74.58;100350.83;1645504;86;25272;-71
2021/03/07 05:57:51;;;;;;;10.38;4.65;;;;;;;2.36;74.29;100370.66;1646101;86;22015;-71
2021/03/07 06:00:19;;;;;;;7.07;4.57;;;;;;;2.34;73.93;100332.97;1644791;84;20954;-71
2021/03/07 06:02:45;;;;;;;9.75;4.70;;;;;;;2.37;73.92;100353.62;1645567;85;21201;-71
2021/03/07 06:05:12;;;;;;;11.70;4.93;;;;;;;2.41;74.06;100312.10;1649436;86;28824;-72
2021/03/07 06:07:38;;;;;;;13.90;5.65;;;;;;;2.35;74.43;100317.71;1650155;86;21229;-71
2021/03/07 06:10:23;;;;;;;11.73;5.47;;;;;;;2.33;74.96;100320.86;1649535;86;21369;-71
2021/03/07 06:13:10;;;;;;;8.38;5.12;;;;;;;2.32;75.42;100334.84;1652278;86;21258;-71
2021/03/07 06:15:33;;;;;;;9.55;5.28;;;;;;;2.28;76.04;100342.48;1646391;85;21199;-71
2021/03/07 06:17:59;;;;;;;12.00;5.80;;;;;;;2.28;76.25;100341.17;1645253;86;26986;-71
2021/03/07 06:20:28;;;;;;;7.87;4.90;;;;;;;2.29;75.98;100324.14;1610194;86;22797;-71
2021/03/07 06:22:59;;;;;;;8.68;4.87;;;;;;;2.29;75.89;100338.95;1649754;86;21242;-70
2021/03/07 06:25:25;;;;;;;9.60;4.65;;;;;;;2.28;75.45;100372.45;1652403;85;21225;-71
2021/03/07 06:27:52;;;;;;;10.45;4.87;;;;;;;2.29;74.61;100318.11;1651315;86;21241;-70
2021/03/07 06:30:25;;;;;;;9.63;4.10;;;;;;;2.34;73.95;100334.27;1648129;86;21204;-71
2021/03/07 06:32:57;;;;;;;7.65;4.25;;;;;;;2.35;73.23;100356.80;1645106;86;21565;-70
2021/03/07 06:35:32;;;;;;;11.65;4.70;;;;;;;2.37;72.98;100331.47;1647042;86;21225;-71
2021/03/07 06:38:05;;;;;;;10.28;4.60;;;;;;;2.37;73.39;100326.26;1644669;86;21203;-70
2021/03/07 06:40:44;;;;;;;13.72;4.47;;;;;;;2.38;73.74;100363.13;1646813;86;21265;-70
2021/03/07 06:43:23;;;;;;;8.85;4.65;;;;;;;2.34;74.14;100332.97;1651685;86;21298;-71
2021/03/07 06:45:49;;;;;;;8.93;4.90;;;;;;;2.29;74.81;100353.28;1649637;86;21269;-70
2021/03/07 06:48:15;;;;;;;10.23;5.13;;;;;;;2.29;75.28;100327.22;1645035;86;21282;-70
2021/03/07 06:50:58;;;;;;;13.30;5.30;;;;;;;2.29;75.71;100345.47;1647930;86;22101;-71
2021/03/07 06:53:36;;;;;;;9.68;4.08;;;;;;;2.29;75.82;100328.05;1647328;86;21222;-71
2021/03/07 06:56:03;;;;;;;8.53;4.83;;;;;;;2.22;75.73;100311.61;1644239;85;21652;-71
2021/03/07 06:58:29;;;;;;;9.45;4.62;;;;;;;2.24;75.66;100337.94;1647005;85;21216;-71
2021/03/07 07:00:54;;;;;;;10.07;4.80;;;;;;;2.25;75.74;100325.73;1646612;85;21629;-71
2021/03/07 07:03:20;;;;;;;11.67;4.60;;;;;;;2.31;75.52;100327.47;1644004;86;23573;-70
2021/03/07 07:05:50;;;;;;;10.77;4.97;;;;;;;2.29;75.17;100338.47;1644051;85;21079;-71
2021/03/07 07:08:18;;;;;;;7.33;4.42;;;;;;;2.27;74.93;100340.80;1641474;86;21777;-71
2021/03/07 07:10:56;;;;;;;9.80;4.60;;;;;;;2.32;74.67;100312.70;1646193;86;21851;-70
2021/03/07 07:13:28;;;;;;;;;;;;;;;2.29;74.39;100311.59;1650817;84;21365;-71
2021/03/07 07:16:04;;;;;;;10.23;4.22;;;;;;;2.30;74.13;100314.55;1633825;87;20562;-71
2021/03/07 07:18:33;;;;;;;10.43;4.30;;;;;;;2.26;73.89;100318.30;1687162;83;21257;-71
2021/03/07 07:21:00;;;;;;;8.70;3.90;;;;;;;2.21;73.73;100333.41;1686072;84;21231;-72
2021/03/07 07:23:26;;;;;;;11.05;3.98;;;;;;;2.22;73.67;100343.73;1687870;83;26732;-72
2021/03/07 07:25:53;;;;;;;10.97;4.03;;;;;;;2.24;73.12;100305.84;1692270;84;22680;-71
2021/03/07 07:28:18;;;;;;;8.48;4.08;;;;;;;2.26;73.00;100316.52;1688690;83;21256;-72
2021/03/07 07:31:04;;;;;;;6.70;3.50;;;;;;;2.25;72.24;100320.53;1687086;82;21038;-71
2021/03/07 07:33:38;;;;;;;8.43;3.52;;;;;;;2.24;71.84;100317.58;1694116;82;21258;-72
2021/03/07 07:36:05;;;;;;;7.28;3.95;;;;;;;2.24;70.72;100354.05;1687546;82;21253;-71
2021/03/07 07:38:31;;;;;;;7.22;3.50;;;;;;;2.23;71.23;100323.70;1687928;84;21175;-72
2021/03/07 07:40:58;;;;;;;8.80;3.80;;;;;;;2.23;70.42;100279.42;1687105;83;22112;-72
2021/03/07 07:43:24;;;;;;;7.80;4.12;;;;;;;2.26;69.93;100339.14;1685954;84;21205;-72
2021/03/07 07:46:10;;;;;;;7.10;3.47;;;;;;;2.19;69.43;100301.38;1685648;84;28380;-72
2021/03/07 07:48:36;;;;;;;9.50;4.03;;;;;;;2.26;69.46;100352.17;1682298;84;21738;-72
2021/03/07 07:51:24;;;;;;;8.57;3.30;;;;;;;2.24;69.45;100300.16;1687421;84;21646;-72
2021/03/07 07:53:50;;;;;;;7.15;3.65;;;;;;;2.18;69.48;100298.42;1675597;84;21189;-72
2021/03/07 07:56:40;;;;;;;6.75;3.50;;;;;;;2.26;69.71;100272.23;1689201;84;21206;-71
2021/03/07 07:59:11;;;;;;;9.85;3.60;;;;;;;2.20;69.68;100280.92;1682184;84;21225;-71
2021/03/07 08:01:53;;;;;;;8.78;3.52;;;;;;;2.22;69.69;100331.14;1682708;84;21197;-71
2021/03/07 08:04:34;;;;;;;8.28;3.70;;;;;;;2.18;70.21;100290.61;1680612;82;21228;-71
2021/03/07 08:07:00;;;;;;;7.72;3.77;;;;;;;2.26;70.37;100283.12;1688599;82;21264;-71
2021/03/07 08:09:38;;;;;;;9.73;3.50;;;;;;;2.25;70.30;100291.87;1686731;84;20959;-70
2021/03/07 08:12:47;;;;;;;10.98;3.83;;;;;;;2.28;69.88;100282.07;1686409;82;21214;-71
2021/03/07 08:15:34;;;;;;;7.78;3.60;;;;;;;2.25;67.96;100296.63;1683402;84;21411;-70
2021/03/07 08:18:05;;;;;;;11.25;3.27;;;;;;;2.25;67.86;100373.94;1679275;84;22187;-71
2021/03/07 08:20:45;;;;;;;8.15;3.90;;;;;;;2.29;68.25;100292.05;1681638;84;21240;-71
2021/03/07 08:23:17;;;;;;;8.43;3.80;;;;;;;2.34;68.06;100276.94;1684314;82;21276;-72
2021/03/07 08:25:52;;;;;;;7.87;3.83;;;;;;;2.38;68.13;100269.30;1688264;84;21225;-71
2021/03/07 08:28:30;;;;;;;6.95;4.03;;;;;;;2.47;67.90;100255.66;1679667;84;21630;-70
2021/03/07 08:31:01;;;;;;;9.28;4.22;;;;;;;2.46;68.07;100267.49;1682260;83;21244;-70
2021/03/07 08:33:29;;;;;;;7.80;3.85;;;;;;;2.46;67.63;100257.06;1672850;84;21221;-71
2021/03/07 08:36:19;;;;;;;9.58;3.80;;;;;;;2.50;67.61;100277.62;1685419;84;21210;-70
2021/03/07 08:38:57;;;;;;;7.80;3.70;;;;;;;2.47;67.14;100270.00;1681494;84;21192;-71
2021/03/07 08:41:39;;;;;;;11.63;4.10;;;;;;;2.49;67.00;100277.72;1683964;84;21240;-71
2021/03/07 08:44:12;;;;;;;7.78;3.58;;;;;;;2.59;66.98;100246.66;1687254;84;21234;-71
2021/03/07 08:46:47;;;;;;;9.53;3.87;;;;;;;2.59;66.65;100275.33;1682783;84;21203;-70
2021/03/07 08:49:19;;;;;;;7.87;3.67;;;;;;;2.63;66.48;100259.86;1686258;84;21612;-70
2021/03/07 08:51:50;;;;;;;8.65;3.62;;;;;;;2.68;66.13;100261.69;1678821;84;21229;-71
2021/03/07 08:54:21;;;;;;;7.00;3.45;;;;;;;2.59;66.00;100260.98;1687685;82;21221;-70
2021/03/07 08:56:49;;;;;;;9.48;3.67;;;;;;;2.40;66.23;100232.23;1683368;82;21213;-71
2021/03/07 08:59:15;;;;;;;6.50;3.30;;;;;;;2.60;66.15;100293.48;1680665;82;21216;-73
2021/03/07 09:01:41;;;;;;;8.97;3.53;;;;;;;2.58;66.41;100239.76;1682824;84;21027;-71
2021/03/07 09:04:11;;;;;;;8.57;3.40;;;;;;;2.53;66.00;100267.91;1679994;84;26831;-72
2021/03/07 09:06:40;;;;;;;8.88;3.33;;;;;;;2.46;65.60;100270.92;1683549;84;21175;-71
2021/03/07 09:09:09;;;;;;;7.83;3.20;;;;;;;2.38;65.61;100254.97;1683823;83;22508;-73
2021/03/07 09:11:39;;;;;;;6.37;3.20;;;;;;;2.39;65.81;100308.73;1680699;82;21205;-70
2021/03/07 09:14:05;;;;;;;7.95;3.10;;;;;;;2.40;66.23;100253.08;1683587;83;21233;-71
2021/03/07 09:16:47;;;;;;;7.60;3.30;;;;;;;2.36;66.42;100260.72;1679283;84;27260;-73
2021/03/07 09:19:30;;;;;;;7.45;3.30;;;;;;;2.32;66.50;100262.70;1686379;84;21228;-71
2021/03/07 09:22:25;;;;;;;7.78;3.30;;;;;;;2.21;66.74;100256.06;1684931;84;21485;-72
2021/03/07 09:25:09;;;;;;;8.48;3.20;;;;;;;2.11;66.96;100301.87;1682941;82;21473;-70
2021/03/07 09:27:41;;;;;;;11.00;3.80;;;;;;;1.99;67.45;100238.39;1685301;84;21213;-74
2021/03/07 09:30:14;;;;;;;9.38;3.47;;;;;;;1.98;67.69;100277.91;1689555;84;21209;-74
2021/03/07 09:32:49;;;;;;;6.95;3.67;;;;;;;2.01;67.98;100262.56;1688986;84;21566;-73
2021/03/07 09:35:31;;;;;;;10.28;3.65;;;;;;;1.95;67.90;100262.95;1691400;83;21228;-72
2021/03/07 09:38:08;;;;;;;8.33;3.67;;;;;;;1.96;67.54;100243.80;1688823;84;21770;-72
2021/03/07 09:40:39;;;;;;;7.10;3.70;;;;;;;2.05;67.51;100260.59;1697298;82;21647;-73
2021/03/07 09:43:13;;;;;;;9.00;3.87;;;;;;;1.95;67.42;100244.72;1671916;84;38607;-71
2021/03/07 09:45:50;;;;;;;10.88;3.37;;;;;;;1.91;67.63;100230.22;1697480;82;21641;-74
2021/03/07 09:48:21;;;;;;;12.90;3.65;;;;;;;1.98;67.65;100238.84;1694702;82;27095;-73
2021/03/07 09:50:46;;;;;;;11.10;3.98;;;;;;;1.94;67.75;100244.34;1694211;82;21231;-73
2021/03/07 09:53:12;;;;;;;8.47;3.70;;;;;;;1.85;67.97;100231.47;1690170;82;21041;-73
2021/03/07 09:55:41;;;;;;;9.30;3.85;;;;;;;1.92;67.86;100230.59;1692244;82;21205;-74
2021/03/07 09:58:09;;;;;;;9.23;4.10;;;;;;;1.91;68.01;100243.23;1691828;82;21248;-72
2021/03/07 10:00:41;;;;;;;9.38;3.77;;;;;;;1.92;68.20;100242.31;1695029;82;21513;-74
2021/03/07 10:03:22;;;;;;;7.80;3.52;;;;;;;2.01;67.94;100244.33;1691225;82;21224;-75
2021/03/07 10:06:17;;;;;;;9.65;4.03;;;;;;;2.02;68.06;100230.38;1692359;82;21194;-74
2021/03/07 10:08:44;;;;;;;10.80;4.00;;;;;;;1.96;68.24;100221.66;1695533;82;21210;-72
2021/03/07 10:11:20;;;;;;;9.75;4.22;;;;;;;1.96;68.44;100237.29;1691597;82;21231;-73
2021/03/07 10:14:02;;;;;;;10.08;4.30;;;;;;;1.88;68.74;100233.02;1693607;82;21214;-72
2021/03/07 10:16:31;;;;;;;12.20;4.60;;;;;;;1.91;68.76;100217.20;1693768;82;21157;-73
2021/03/07 10:19:12;;;;;;;9.30;3.85;;;;;;;1.89;68.89;100225.59;1696359;82;21566;-73
2021/03/07 10:21:39;;;;;;;11.60;4.65;;;;;;;1.97;68.94;100248.05;1694702;82;21192;-73
2021/03/07 10:24:17;;;;;;;9.97;4.33;;;;;;;1.92;69.24;100239.71;1694117;82;21603;-73
2021/03/07 10:26:46;;;;;;;12.70;4.75;;;;;;;1.89;69.58;100208.18;1693097;82;21827;-73
2021/03/07 10:29:30;;;;;;;11.68;4.53;;;;;;;1.88;69.81;100245.59;1693968;82;21261;-72
2021/03/07 10:32:18;;;;;;;14.30;4.72;;;;;;;1.91;69.98;100213.29;1692670;82;21176;-70
2021/03/07 10:34:49;;;;;;;10.23;4.95;;;;;;;1.98;70.08;100245.83;1678519;82;21628;-71
2021/03/07 10:37:42;;;;;;;10.40;4.20;;;;;;;1.91;70.54;100194.62;1694709;82;21236;-71
2021/03/07 10:40:13;;;;;;;10.40;4.62;;;;;;;1.93;70.61;100204.94;1693804;82;22309;-71
2021/03/07 10:42:42;;;;;;;13.32;4.45;;;;;;;1.89;70.58;100213.86;1690520;83;21257;-71
2021/03/07 10:45:23;;;;;;;13.95;4.87;;;;;;;1.95;70.63;100248.16;1693454;82;21560;-72
2021/03/07 10:48:09;;;;;;;12.13;4.50;;;;;;;1.94;70.71;100236.09;1689541;82;21594;-72
2021/03/07 10:50:36;;;;;;;10.72;5.10;;;;;;;1.98;70.49;100209.37;1693579;82;21247;-74
2021/03/07 10:53:02;;;;;;;10.00;4.22;;;;;;;2.07;70.56;100212.67;1693969;82;21866;-75
2021/03/07 10:55:28;;;;;;;10.90;4.55;;;;;;;2.06;70.32;100218.81;1691804;82;21225;-71
2021/03/07 10:57:54;;;;;;;11.27;4.87;;;;;;;2.05;70.43;100222.38;1690355;82;21477;-72
2021/03/07 11:00:21;;;;;;;12.33;4.80;;;;;;;2.11;70.22;100215.91;1691351;82;26825;-72
2021/03/07 11:02:47;;;;;;;12.40;4.62;;;;;;;2.12;70.23;100180.64;1694564;82;21180;-73
2021/03/07 11:05:14;;;;;;;8.20;4.30;;;;;;;2.11;70.20;100189.86;1692168;82;23500;-72
2021/03/07 11:07:41;;;;;;;9.93;4.50;;;;;;;2.15;70.20;100244.27;1697699;82;21245;-71
2021/03/07 11:10:08;;;;;;;12.15;4.22;;;;;;;2.13;70.23;100179.72;1692614;82;21232;-72
2021/03/07 11:12:35;;;;;;;9.88;4.50;;;;;;;2.12;69.99;100174.12;1700143;82;22497;-73
2021/03/07 11:15:02;;;;;;;12.23;4.78;;;;;;;2.12;69.90;100222.32;1677840;83;21594;-72
2021/03/07 11:17:27;;;;;;;9.58;4.35;;;;;;;2.09;70.27;100193.86;1694071;82;21998;-72
2021/03/07 11:19:53;;;;;;;9.50;4.47;;;;;;;2.19;70.08;100186.75;1692922;82;21010;-73
2021/03/07 11:22:19;;;;;;;10.23;4.10;;;;;;;2.14;70.10;100203.53;1692537;82;20997;-75
2021/03/07 11:24:45;;;;;;;11.23;3.87;;;;;;;2.09;69.95;100195.17;1693769;82;25738;-75
2021/03/07 11:27:11;;;;;;;10.15;4.12;;;;;;;2.19;69.81;100172.42;1693613;82;26162;-76
2021/03/07 11:29:36;;;;;;;8.40;4.10;;;;;;;2.15;70.02;100183.52;1692513;82;21448;-76
2021/03/07 11:32:02;;;;;;;10.77;3.97;;;;;;;2.19;69.89;100189.35;1693189;82;21022;-74
2021/03/07 11:34:28;;;;;;;7.87;3.83;;;;;;;2.23;69.81;100178.63;1692192;82;21131;-76
2021/03/07 11:36:54;;;;;;;10.80;4.00;;;;;;;2.18;69.82;100175.50;1689439;82;21591;-75
2021/03/07 11:39:20;;;;;;;10.53;4.30;;;;;;;2.08;69.97;100177.03;1692892;82;23797;-73
2021/03/07 11:41:46;;;;;;;9.17;4.40;;;;;;;2.12;70.08;100178.03;1693242;82;21498;-74